SWA946 KLAX-KOAK
Flight info
| Callsign | SWA946 |
|---|---|
| Flight time | 0h 50m |
| Altitude | 34000 |
| Route | LADYJ4 COREZ RGOOD EMZOH4 |
| Aircraft | B738/M-SDE2E3FGHIRWXY/LB1 |
Departure
| Time | 2026-04-21 02:29 |
|---|---|
| Airport | Los Angeles International Airport (KLAX) |
Arrival
| Time | 2026-04-21 03:20 |
|---|---|
| Airport | San Francisco Bay Oakland International Airport (KOAK) |
| Time | Latitude | Longitude | Altitude | Speed | Heading |
|---|---|---|---|---|---|
| 2026-04-21 02:08 | 33.94766 | -118.40065 | 125 ft | 0 kts | 243° |
| 2026-04-21 02:19 | 33.94773 | -118.40049 | 125 ft | 4 kts | 253° |
| 2026-04-21 02:19 | 33.94775 | -118.40020 | 119 ft | 4 kts | 305° |
| 2026-04-21 02:19 | 33.94762 | -118.40011 | 125 ft | 1 kts | 5° |
| 2026-04-21 02:20 | 33.94758 | -118.40011 | 125 ft | 0 kts | 5° |
| 2026-04-21 02:25 | 33.94763 | -118.40010 | 121 ft | 3 kts | 5° |
| 2026-04-21 02:25 | 33.94791 | -118.40007 | 121 ft | 5 kts | 5° |
| 2026-04-21 02:25 | 33.94826 | -118.40014 | 122 ft | 5 kts | 339° |
| 2026-04-21 02:26 | 33.94845 | -118.40050 | 122 ft | 5 kts | 289° |
| 2026-04-21 02:26 | 33.94873 | -118.40079 | 123 ft | 5 kts | 338° |
| 2026-04-21 02:26 | 33.94908 | -118.40069 | 123 ft | 5 kts | 42° |
| 2026-04-21 02:26 | 33.94923 | -118.40028 | 124 ft | 6 kts | 77° |
| 2026-04-21 02:27 | 33.94929 | -118.39977 | 121 ft | 6 kts | 79° |
| 2026-04-21 02:27 | 33.94942 | -118.39938 | 124 ft | 4 kts | 55° |
| 2026-04-21 02:27 | 33.94945 | -118.39933 | 121 ft | 0 kts | 46° |
| 2026-04-21 02:27 | 33.94957 | -118.39921 | 124 ft | 7 kts | 40° |
| 2026-04-21 02:28 | 33.95013 | -118.39918 | 122 ft | 2 kts | 344° |
| 2026-04-21 02:28 | 33.95030 | -118.39929 | 124 ft | 6 kts | 317° |
| 2026-04-21 02:28 | 33.95036 | -118.40011 | 123 ft | 20 kts | 262° |
| 2026-04-21 02:28 | 33.94991 | -118.40477 | 125 ft | 93 kts | 263° |
| 2026-04-21 02:29 | 33.94876 | -118.41525 | 133 ft | 154 kts | 262° |
| 2026-04-21 02:29 | 33.94733 | -118.42935 | 520 ft | 179 kts | 261° |
| 2026-04-21 02:29 | 33.94583 | -118.44439 | 1523 ft | 170 kts | 261° |
| 2026-04-21 02:29 | 33.94435 | -118.45801 | 2402 ft | 169 kts | 263° |
| 2026-04-21 02:30 | 33.94327 | -118.47262 | 2765 ft | 187 kts | 267° |
| 2026-04-21 02:30 | 33.94274 | -118.48918 | 2983 ft | 207 kts | 268° |
| 2026-04-21 02:30 | 33.94226 | -118.50735 | 3131 ft | 226 kts | 267° |
| 2026-04-21 02:30 | 33.94104 | -118.52673 | 3382 ft | 237 kts | 264° |
| 2026-04-21 02:31 | 33.93942 | -118.54669 | 3810 ft | 240 kts | 263° |
| 2026-04-21 02:31 | 33.93778 | -118.56679 | 4252 ft | 243 kts | 263° |
| 2026-04-21 02:31 | 33.93616 | -118.58704 | 4649 ft | 250 kts | 263° |
| 2026-04-21 02:31 | 33.93455 | -118.60862 | 4940 ft | 266 kts | 266° |
| 2026-04-21 02:32 | 33.93863 | -118.63053 | 5533 ft | 276 kts | 298° |
| 2026-04-21 02:32 | 33.95178 | -118.64751 | 6227 ft | 283 kts | 323° |
| 2026-04-21 02:32 | 33.96860 | -118.66023 | 6851 ft | 289 kts | 326° |
| 2026-04-21 02:32 | 33.98003 | -118.66854 | 7276 ft | 291 kts | 328° |
| 2026-04-21 02:33 | 33.99917 | -118.67686 | 7793 ft | 297 kts | 354° |
| 2026-04-21 02:33 | 34.02688 | -118.67578 | 8375 ft | 305 kts | 3° |
| 2026-04-21 02:33 | 34.04818 | -118.67413 | 9113 ft | 308 kts | 2° |
| 2026-04-21 02:33 | 34.06974 | -118.67278 | 9817 ft | 313 kts | 358° |
| 2026-04-21 02:34 | 34.09102 | -118.67834 | 10291 ft | 319 kts | 335° |
| 2026-04-21 02:34 | 34.11218 | -118.68925 | 10468 ft | 341 kts | 333° |
| 2026-04-21 02:34 | 34.13395 | -118.70117 | 10870 ft | 353 kts | 332° |
| 2026-04-21 02:34 | 34.14914 | -118.70961 | 11309 ft | 356 kts | 332° |
| 2026-04-21 02:35 | 34.17176 | -118.72217 | 12024 ft | 359 kts | 332° |
| 2026-04-21 02:35 | 34.19456 | -118.73476 | 12691 ft | 363 kts | 332° |
| 2026-04-21 02:35 | 34.22532 | -118.75162 | 13595 ft | 368 kts | 332° |
| 2026-04-21 02:35 | 34.24874 | -118.76436 | 14311 ft | 371 kts | 332° |
| 2026-04-21 02:36 | 34.26438 | -118.77285 | 14730 ft | 373 kts | 331° |
| 2026-04-21 02:36 | 34.28826 | -118.78581 | 15395 ft | 378 kts | 331° |
| 2026-04-21 02:36 | 34.31241 | -118.79891 | 16056 ft | 383 kts | 331° |
| 2026-04-21 02:36 | 34.33685 | -118.81215 | 16713 ft | 387 kts | 331° |
| 2026-04-21 02:37 | 34.36161 | -118.82558 | 17362 ft | 392 kts | 331° |
| 2026-04-21 02:37 | 34.38661 | -118.83915 | 18047 ft | 396 kts | 331° |
| 2026-04-21 02:37 | 34.41199 | -118.85294 | 18590 ft | 402 kts | 331° |
| 2026-04-21 02:37 | 34.43757 | -118.86682 | 19225 ft | 402 kts | 331° |
| 2026-04-21 02:38 | 34.46243 | -118.88029 | 19780 ft | 406 kts | 331° |
| 2026-04-21 02:38 | 34.48812 | -118.89426 | 20324 ft | 410 kts | 331° |
| 2026-04-21 02:38 | 34.51425 | -118.90846 | 20893 ft | 413 kts | 331° |
| 2026-04-21 02:38 | 34.54059 | -118.92278 | 21424 ft | 416 kts | 331° |
| 2026-04-21 02:39 | 34.56710 | -118.93717 | 21893 ft | 422 kts | 331° |
| 2026-04-21 02:39 | 34.59406 | -118.95189 | 22405 ft | 426 kts | 331° |
| 2026-04-21 02:39 | 34.62085 | -118.96651 | 23027 ft | 428 kts | 331° |
| 2026-04-21 02:39 | 34.64825 | -118.98100 | 23617 ft | 429 kts | 331° |
| 2026-04-21 02:40 | 34.67546 | -118.99582 | 24060 ft | 432 kts | 330° |
| 2026-04-21 02:40 | 34.70294 | -119.01100 | 24518 ft | 433 kts | 330° |
| 2026-04-21 02:40 | 34.73049 | -119.02623 | 24962 ft | 436 kts | 330° |
| 2026-04-21 02:40 | 34.75814 | -119.04150 | 25430 ft | 437 kts | 330° |
| 2026-04-21 02:41 | 34.78568 | -119.05667 | 25897 ft | 439 kts | 330° |
| 2026-04-21 02:41 | 34.81323 | -119.07182 | 26313 ft | 440 kts | 330° |
| 2026-04-21 02:41 | 34.84125 | -119.08721 | 26714 ft | 443 kts | 330° |
| 2026-04-21 02:41 | 34.86939 | -119.10267 | 27154 ft | 445 kts | 330° |
| 2026-04-21 02:42 | 34.89764 | -119.11815 | 27623 ft | 445 kts | 330° |
| 2026-04-21 02:42 | 34.92559 | -119.13351 | 28012 ft | 447 kts | 330° |
| 2026-04-21 02:42 | 34.95406 | -119.14920 | 28372 ft | 450 kts | 330° |
| 2026-04-21 02:42 | 34.98267 | -119.16497 | 28785 ft | 451 kts | 330° |
| 2026-04-21 02:43 | 35.01135 | -119.18079 | 29180 ft | 453 kts | 330° |
| 2026-04-21 02:43 | 35.04013 | -119.19668 | 29525 ft | 455 kts | 330° |
| 2026-04-21 02:43 | 35.06895 | -119.21259 | 29968 ft | 454 kts | 330° |
| 2026-04-21 02:43 | 35.09770 | -119.22846 | 30429 ft | 452 kts | 330° |
| 2026-04-21 02:44 | 35.12639 | -119.24432 | 30763 ft | 453 kts | 330° |
| 2026-04-21 02:44 | 35.15519 | -119.26023 | 31096 ft | 454 kts | 330° |
| 2026-04-21 02:44 | 35.18397 | -119.27617 | 31427 ft | 455 kts | 330° |
| 2026-04-21 02:44 | 35.21283 | -119.29219 | 31800 ft | 454 kts | 330° |
| 2026-04-21 02:45 | 35.24167 | -119.30819 | 32150 ft | 454 kts | 330° |
| 2026-04-21 02:45 | 35.27008 | -119.32398 | 32472 ft | 455 kts | 329° |
| 2026-04-21 02:45 | 35.29889 | -119.33999 | 32801 ft | 455 kts | 329° |
| 2026-04-21 02:45 | 35.32777 | -119.35605 | 33123 ft | 455 kts | 329° |
| 2026-04-21 02:46 | 35.35616 | -119.37186 | 33420 ft | 457 kts | 329° |
| 2026-04-21 02:46 | 35.38569 | -119.38831 | 33721 ft | 458 kts | 329° |
| 2026-04-21 02:46 | 35.41466 | -119.40446 | 33932 ft | 460 kts | 329° |
| 2026-04-21 02:47 | 35.47330 | -119.43720 | 33909 ft | 462 kts | 329° |
| 2026-04-21 02:47 | 35.53134 | -119.46958 | 33939 ft | 454 kts | 329° |
| 2026-04-21 02:48 | 35.58373 | -119.50925 | 33930 ft | 438 kts | 314° |
| 2026-04-21 02:48 | 35.63010 | -119.55747 | 33931 ft | 436 kts | 313° |
| 2026-04-21 02:49 | 35.67634 | -119.60566 | 33931 ft | 435 kts | 314° |
| 2026-04-21 02:49 | 35.72283 | -119.65353 | 33943 ft | 435 kts | 314° |
| 2026-04-21 02:50 | 35.76941 | -119.70132 | 33937 ft | 436 kts | 314° |
| 2026-04-21 02:50 | 35.81608 | -119.74926 | 33943 ft | 437 kts | 314° |
| 2026-04-21 02:51 | 35.86276 | -119.79731 | 33942 ft | 438 kts | 314° |
| 2026-04-21 02:51 | 35.90931 | -119.84537 | 33961 ft | 438 kts | 312° |
| 2026-04-21 02:52 | 35.95397 | -119.89643 | 33948 ft | 436 kts | 309° |
| 2026-04-21 02:52 | 35.99737 | -119.94872 | 33944 ft | 436 kts | 309° |
| 2026-04-21 02:53 | 36.04089 | -120.00096 | 33961 ft | 436 kts | 309° |
| 2026-04-21 02:53 | 36.08456 | -120.05301 | 33947 ft | 436 kts | 309° |
| 2026-04-21 02:54 | 36.12833 | -120.10511 | 33941 ft | 436 kts | 309° |
| 2026-04-21 02:54 | 36.17174 | -120.15681 | 33937 ft | 434 kts | 309° |
| 2026-04-21 02:54 | 36.19327 | -120.18243 | 33922 ft | 423 kts | 308° |
| 2026-04-21 02:55 | 36.21430 | -120.20746 | 33946 ft | 416 kts | 308° |
| 2026-04-21 02:55 | 36.23485 | -120.23196 | 33914 ft | 404 kts | 308° |
| 2026-04-21 02:55 | 36.25478 | -120.25572 | 33909 ft | 391 kts | 307° |
| 2026-04-21 02:55 | 36.27403 | -120.27870 | 33910 ft | 378 kts | 307° |
| 2026-04-21 02:56 | 36.29274 | -120.30112 | 33925 ft | 373 kts | 307° |
| 2026-04-21 02:56 | 36.33034 | -120.34648 | 33749 ft | 378 kts | 307° |
| 2026-04-21 02:56 | 36.34904 | -120.36901 | 33119 ft | 383 kts | 307° |
| 2026-04-21 02:57 | 36.36842 | -120.39242 | 32191 ft | 396 kts | 307° |
| 2026-04-21 02:57 | 36.38851 | -120.41666 | 31510 ft | 405 kts | 307° |
| 2026-04-21 02:57 | 36.40876 | -120.44098 | 31110 ft | 404 kts | 307° |
| 2026-04-21 02:57 | 36.42889 | -120.46511 | 30811 ft | 399 kts | 307° |
| 2026-04-21 02:58 | 36.44879 | -120.48899 | 30515 ft | 396 kts | 307° |
| 2026-04-21 02:58 | 36.46850 | -120.51275 | 30175 ft | 394 kts | 307° |
| 2026-04-21 02:58 | 36.48791 | -120.53621 | 29772 ft | 393 kts | 307° |
| 2026-04-21 02:58 | 36.50750 | -120.55987 | 29316 ft | 392 kts | 307° |
| 2026-04-21 02:59 | 36.52697 | -120.58339 | 28866 ft | 390 kts | 307° |
| 2026-04-21 02:59 | 36.54661 | -120.60671 | 28509 ft | 388 kts | 309° |
| 2026-04-21 02:59 | 36.56663 | -120.62909 | 28129 ft | 386 kts | 310° |
| 2026-04-21 02:59 | 36.58677 | -120.65113 | 27708 ft | 386 kts | 310° |
| 2026-04-21 03:00 | 36.60696 | -120.67317 | 27368 ft | 383 kts | 310° |
| 2026-04-21 03:00 | 36.62683 | -120.69490 | 27130 ft | 379 kts | 310° |
| 2026-04-21 03:00 | 36.64653 | -120.71659 | 26861 ft | 375 kts | 309° |
| 2026-04-21 03:00 | 36.66597 | -120.73812 | 26614 ft | 373 kts | 309° |
| 2026-04-21 03:01 | 36.68517 | -120.75948 | 26406 ft | 378 kts | 309° |
| 2026-04-21 03:01 | 36.70491 | -120.78149 | 26199 ft | 381 kts | 309° |
| 2026-04-21 03:01 | 36.72458 | -120.80332 | 26021 ft | 377 kts | 309° |
| 2026-04-21 03:01 | 36.74372 | -120.82540 | 25609 ft | 375 kts | 309° |
| 2026-04-21 03:02 | 36.76336 | -120.84715 | 25136 ft | 378 kts | 310° |
| 2026-04-21 03:02 | 36.78324 | -120.86883 | 24718 ft | 379 kts | 310° |
| 2026-04-21 03:02 | 36.80301 | -120.89052 | 24388 ft | 378 kts | 310° |
| 2026-04-21 03:02 | 36.82264 | -120.91215 | 24066 ft | 375 kts | 310° |
| 2026-04-21 03:03 | 36.84210 | -120.93368 | 23765 ft | 373 kts | 310° |
| 2026-04-21 03:03 | 36.86145 | -120.95514 | 23434 ft | 371 kts | 310° |
| 2026-04-21 03:03 | 36.88072 | -120.97653 | 23010 ft | 371 kts | 309° |
| 2026-04-21 03:03 | 36.90002 | -120.99801 | 22601 ft | 370 kts | 310° |
| 2026-04-21 03:04 | 36.91920 | -121.01935 | 22271 ft | 367 kts | 310° |
| 2026-04-21 03:04 | 36.93821 | -121.04049 | 21900 ft | 365 kts | 310° |
| 2026-04-21 03:04 | 36.95718 | -121.06160 | 21552 ft | 363 kts | 310° |
| 2026-04-21 03:04 | 36.97580 | -121.08235 | 21219 ft | 362 kts | 310° |
| 2026-04-21 03:05 | 36.99450 | -121.10323 | 20876 ft | 360 kts | 310° |
| 2026-04-21 03:05 | 37.01325 | -121.12406 | 20580 ft | 359 kts | 310° |
| 2026-04-21 03:05 | 37.03192 | -121.14491 | 20267 ft | 358 kts | 310° |
| 2026-04-21 03:05 | 37.05044 | -121.16564 | 19979 ft | 356 kts | 310° |
| 2026-04-21 03:06 | 37.06880 | -121.18621 | 19682 ft | 352 kts | 309° |
| 2026-04-21 03:06 | 37.08713 | -121.20677 | 19362 ft | 352 kts | 310° |
| 2026-04-21 03:06 | 37.10515 | -121.22693 | 19039 ft | 351 kts | 310° |
| 2026-04-21 03:06 | 37.12332 | -121.24727 | 18747 ft | 350 kts | 310° |
| 2026-04-21 03:07 | 37.14143 | -121.26769 | 18460 ft | 348 kts | 310° |
| 2026-04-21 03:07 | 37.15913 | -121.28815 | 18166 ft | 345 kts | 310° |
| 2026-04-21 03:07 | 37.17661 | -121.30867 | 17814 ft | 343 kts | 309° |
| 2026-04-21 03:07 | 37.19394 | -121.32932 | 17423 ft | 343 kts | 310° |
| 2026-04-21 03:08 | 37.21150 | -121.34966 | 17101 ft | 342 kts | 311° |
| 2026-04-21 03:08 | 37.22899 | -121.36988 | 16598 ft | 346 kts | 311° |
| 2026-04-21 03:08 | 37.24680 | -121.39057 | 15969 ft | 351 kts | 311° |
| 2026-04-21 03:08 | 37.26477 | -121.41143 | 15370 ft | 353 kts | 312° |
| 2026-04-21 03:09 | 37.27672 | -121.42530 | 14972 ft | 353 kts | 312° |
| 2026-04-21 03:09 | 37.30085 | -121.45349 | 14111 ft | 353 kts | 312° |
| 2026-04-21 03:09 | 37.31882 | -121.47449 | 13578 ft | 352 kts | 312° |
| 2026-04-21 03:09 | 37.33671 | -121.49533 | 13088 ft | 347 kts | 312° |
| 2026-04-21 03:10 | 37.35427 | -121.51581 | 12622 ft | 342 kts | 311° |
| 2026-04-21 03:10 | 37.37159 | -121.53603 | 12189 ft | 336 kts | 311° |
| 2026-04-21 03:10 | 37.38833 | -121.55554 | 11808 ft | 329 kts | 312° |
| 2026-04-21 03:10 | 37.40516 | -121.57471 | 11419 ft | 323 kts | 312° |
| 2026-04-21 03:11 | 37.42167 | -121.59334 | 11077 ft | 316 kts | 313° |
| 2026-04-21 03:11 | 37.43791 | -121.61164 | 10645 ft | 310 kts | 309° |
| 2026-04-21 03:11 | 37.45123 | -121.63207 | 10331 ft | 297 kts | 298° |
| 2026-04-21 03:11 | 37.46290 | -121.65344 | 10012 ft | 297 kts | 298° |
| 2026-04-21 03:12 | 37.47474 | -121.67470 | 9806 ft | 295 kts | 298° |
| 2026-04-21 03:12 | 37.48627 | -121.69580 | 9595 ft | 289 kts | 299° |
| 2026-04-21 03:12 | 37.49801 | -121.71626 | 9333 ft | 289 kts | 299° |
| 2026-04-21 03:12 | 37.51006 | -121.73617 | 9061 ft | 288 kts | 301° |
| 2026-04-21 03:13 | 37.52197 | -121.75676 | 8738 ft | 287 kts | 298° |
| 2026-04-21 03:13 | 37.53170 | -121.77819 | 8414 ft | 277 kts | 280° |
| 2026-04-21 03:13 | 37.53486 | -121.80133 | 7949 ft | 271 kts | 269° |
| 2026-04-21 03:13 | 37.53738 | -121.82491 | 7451 ft | 272 kts | 271° |
| 2026-04-21 03:14 | 37.54013 | -121.84849 | 6990 ft | 272 kts | 272° |
| 2026-04-21 03:14 | 37.54293 | -121.87206 | 6514 ft | 271 kts | 271° |
| 2026-04-21 03:14 | 37.54571 | -121.89557 | 6062 ft | 271 kts | 272° |
| 2026-04-21 03:14 | 37.54845 | -121.91909 | 5567 ft | 270 kts | 272° |
| 2026-04-21 03:15 | 37.55117 | -121.94245 | 5077 ft | 269 kts | 272° |
| 2026-04-21 03:15 | 37.55387 | -121.96566 | 4621 ft | 267 kts | 272° |
| 2026-04-21 03:15 | 37.55666 | -121.98875 | 4127 ft | 267 kts | 276° |
| 2026-04-21 03:15 | 37.56455 | -122.01021 | 3626 ft | 277 kts | 303° |
| 2026-04-21 03:16 | 37.57700 | -122.02852 | 3277 ft | 272 kts | 305° |
| 2026-04-21 03:16 | 37.58912 | -122.04630 | 2970 ft | 261 kts | 305° |
| 2026-04-21 03:16 | 37.60044 | -122.06304 | 2672 ft | 248 kts | 304° |
| 2026-04-21 03:16 | 37.61125 | -122.07889 | 2583 ft | 227 kts | 305° |
| 2026-04-21 03:17 | 37.62112 | -122.09351 | 2434 ft | 210 kts | 304° |
| 2026-04-21 03:17 | 37.63030 | -122.10736 | 2088 ft | 204 kts | 304° |
| 2026-04-21 03:17 | 37.63920 | -122.12075 | 1827 ft | 195 kts | 304° |
| 2026-04-21 03:17 | 37.64768 | -122.13351 | 1594 ft | 184 kts | 305° |
| 2026-04-21 03:18 | 37.65573 | -122.14559 | 1333 ft | 176 kts | 306° |
| 2026-04-21 03:18 | 37.66328 | -122.15692 | 1103 ft | 163 kts | 304° |
| 2026-04-21 03:18 | 37.67024 | -122.16739 | 917 ft | 150 kts | 306° |
| 2026-04-21 03:18 | 37.67673 | -122.17714 | 731 ft | 141 kts | 304° |
| 2026-04-21 03:19 | 37.68302 | -122.18670 | 525 ft | 143 kts | 305° |
| 2026-04-21 03:19 | 37.68961 | -122.19656 | 398 ft | 151 kts | 308° |
| 2026-04-21 03:19 | 37.69640 | -122.20662 | 157 ft | 144 kts | 307° |
| 2026-04-21 03:19 | 37.70271 | -122.21615 | 19 ft | 142 kts | 308° |
| 2026-04-21 03:20 | 37.70847 | -122.22492 | 1 ft | 103 kts | 309° |
| 2026-04-21 03:20 | 37.71181 | -122.22976 | 5 ft | 43 kts | 310° |
| 2026-04-21 03:20 | 37.71330 | -122.23101 | 6 ft | 15 kts | 334° |
| 2026-04-21 03:20 | 37.71423 | -122.23141 | 4 ft | 13 kts | 347° |
| 2026-04-21 03:21 | 37.71450 | -122.23146 | 4 ft | 0 kts | 1° |
| 2026-04-21 03:27 | 37.71471 | -122.23146 | 4 ft | 4 kts | 11° |
| 2026-04-21 03:27 | 37.71495 | -122.23122 | 5 ft | 5 kts | 58° |
| 2026-04-21 03:27 | 37.71484 | -122.23054 | 10 ft | 11 kts | 126° |
| 2026-04-21 03:27 | 37.71420 | -122.22956 | 10 ft | 18 kts | 130° |
| 2026-04-21 03:28 | 37.71333 | -122.22825 | 10 ft | 19 kts | 129° |
| 2026-04-21 03:28 | 37.71250 | -122.22701 | 11 ft | 18 kts | 130° |
| 2026-04-21 03:28 | 37.71181 | -122.22597 | 9 ft | 14 kts | 130° |
| 2026-04-21 03:28 | 37.71117 | -122.22502 | 7 ft | 14 kts | 130° |
| 2026-04-21 03:29 | 37.71118 | -122.22424 | 8 ft | 9 kts | 38° |
| 2026-04-21 03:29 | 37.71165 | -122.22374 | 8 ft | 9 kts | 40° |
| 2026-04-21 03:29 | 37.71210 | -122.22326 | 9 ft | 8 kts | 40° |
| 2026-04-21 03:29 | 37.71255 | -122.22279 | 11 ft | 8 kts | 38° |
| 2026-04-21 03:30 | 37.71298 | -122.22234 | 10 ft | 8 kts | 40° |
| 2026-04-21 03:30 | 37.71337 | -122.22183 | 10 ft | 9 kts | 48° |
| 2026-04-21 03:30 | 37.71383 | -122.22119 | 12 ft | 10 kts | 47° |
| 2026-04-21 03:30 | 37.71428 | -122.22054 | 15 ft | 10 kts | 49° |
| 2026-04-21 03:31 | 37.71472 | -122.21991 | 14 ft | 9 kts | 48° |
| 2026-04-21 03:31 | 37.71516 | -122.21932 | 14 ft | 9 kts | 52° |
| 2026-04-21 03:31 | 37.71557 | -122.21872 | 14 ft | 8 kts | 49° |
| 2026-04-21 03:31 | 37.71562 | -122.21810 | 14 ft | 8 kts | 126° |
| 2026-04-21 03:32 | 37.71522 | -122.21761 | 14 ft | 8 kts | 141° |
| 2026-04-21 03:32 | 37.71465 | -122.21698 | 14 ft | 14 kts | 136° |
| 2026-04-21 03:32 | 37.71368 | -122.21666 | 13 ft | 18 kts | 212° |
| 2026-04-21 03:32 | 37.71266 | -122.21702 | 13 ft | 15 kts | 168° |
| 2026-04-21 03:33 | 37.71172 | -122.21735 | 13 ft | 15 kts | 213° |
| 2026-04-21 03:33 | 37.71093 | -122.21811 | 11 ft | 14 kts | 216° |
| 2026-04-21 03:33 | 37.71010 | -122.21797 | 11 ft | 13 kts | 135° |
| 2026-04-21 03:33 | 37.70954 | -122.21708 | 11 ft | 13 kts | 128° |
| 2026-04-21 03:34 | 37.70912 | -122.21614 | 12 ft | 12 kts | 95° |
| 2026-04-21 03:34 | 37.70950 | -122.21522 | 12 ft | 12 kts | 32° |
| 2026-04-21 03:34 | 37.71017 | -122.21464 | 15 ft | 11 kts | 27° |
| 2026-04-21 03:34 | 37.71054 | -122.21491 | 13 ft | 6 kts | 301° |
| 2026-04-21 03:35 | 37.71074 | -122.21525 | 15 ft | 2 kts | 307° |
| 2026-04-21 03:35 | 37.71081 | -122.21536 | 14 ft | 0 kts | 307° |